Time;durP1;ratioP1;P1;durP2;ratioP2;P2;SDS_P1;SDS_P2;PMS_P1;PMS_P2;Temp;Humidity;BMP_temperature;BMP_pressure;BME280_temperature;BME280_humidity;BME280_pressure;Samples;Min_cycle;Max_cycle;Signal;HPM_P1;HPM_P2
2021/06/27 00:02:40;;;;;;;4.00;3.90;;;;;;;19.76;73.00;101573.22;6313284;28;20467;-76
2021/06/27 00:05:46;;;;;;;4.25;4.07;;;;;;;19.78;72.66;101569.09;6313053;28;20215;-75
2021/06/27 00:08:50;;;;;;;4.05;3.95;;;;;;;19.73;73.20;101577.34;6314056;28;20191;-75
2021/06/27 00:11:55;;;;;;;4.55;4.20;;;;;;;19.73;73.39;101565.44;6312478;28;20191;-75
2021/06/27 00:14:59;;;;;;;3.80;3.60;;;;;;;19.80;72.97;101564.13;6312894;28;20187;-75
2021/06/27 00:18:05;;;;;;;4.03;3.70;;;;;;;19.69;74.13;101567.91;6313284;28;20184;-75
2021/06/27 00:21:13;;;;;;;3.75;3.65;;;;;;;19.71;73.86;101568.47;6297164;28;20228;-76
2021/06/27 00:24:17;;;;;;;3.80;3.60;;;;;;;19.71;73.80;101562.09;6289010;28;20251;-76
2021/06/27 00:27:21;;;;;;;3.85;3.53;;;;;;;19.69;73.60;101564.28;6270633;28;20207;-76
2021/06/27 00:30:28;;;;;;;3.40;3.30;;;;;;;19.66;74.05;101565.66;6288726;28;20191;-75
2021/06/27 00:33:33;;;;;;;3.45;3.45;;;;;;;19.65;74.15;101558.41;6287499;28;20492;-75
2021/06/27 00:36:39;;;;;;;4.95;4.60;;;;;;;19.61;74.51;101551.75;6288940;28;20189;-75
2021/06/27 00:39:43;;;;;;;4.25;4.05;;;;;;;19.59;74.58;101553.09;6287449;28;20475;-76
2021/06/27 00:42:48;;;;;;;4.38;4.05;;;;;;;19.58;75.11;101559.72;6288618;28;20216;-76
2021/06/27 00:45:53;;;;;;;4.72;4.35;;;;;;;19.55;74.93;101554.69;6287640;28;20275;-76
2021/06/27 00:48:57;;;;;;;4.70;4.20;;;;;;;19.54;74.90;101556.63;6287359;28;20471;-76
2021/06/27 00:52:03;;;;;;;4.72;4.10;;;;;;;19.52;75.67;101558.81;6288435;28;20184;-76
2021/06/27 00:55:09;;;;;;;3.75;3.65;;;;;;;19.52;75.33;101552.44;6288411;28;20197;-76
2021/06/27 00:58:13;;;;;;;4.30;3.90;;;;;;;19.53;74.89;101559.66;6287109;28;20185;-75
2021/06/27 01:01:17;;;;;;;3.67;3.60;;;;;;;19.53;74.77;101549.44;6288035;28;20184;-76
2021/06/27 01:04:24;;;;;;;4.05;3.75;;;;;;;19.57;74.05;101561.66;6288230;28;20188;-76
2021/06/27 01:07:30;;;;;;;3.92;3.72;;;;;;;19.57;73.63;101561.66;6288204;28;20251;-75
2021/06/27 01:10:34;;;;;;;3.65;3.55;;;;;;;19.51;73.82;101557.16;6287198;28;20184;-75
2021/06/27 01:13:39;;;;;;;3.80;3.63;;;;;;;19.39;74.30;101550.91;6287811;28;20184;-75
2021/06/27 01:16:43;;;;;;;3.50;3.33;;;;;;;19.35;75.09;101563.56;6288272;28;20207;-75
2021/06/27 01:19:48;;;;;;;4.93;3.72;;;;;;;19.36;75.56;101562.50;6292142;28;20265;-75
2021/06/27 01:22:55;;;;;;;3.78;3.67;;;;;;;19.31;76.21;101565.19;6312423;28;20219;-75
2021/06/27 01:25:59;;;;;;;4.43;4.10;;;;;;;19.12;76.86;101563.81;6310735;28;20519;-75
2021/06/27 01:29:04;;;;;;;3.97;3.88;;;;;;;19.09;77.73;101575.38;6312817;28;20190;-75
2021/06/27 01:32:10;;;;;;;4.10;4.00;;;;;;;19.10;77.79;101561.31;6312404;28;20274;-75
2021/06/27 01:35:17;;;;;;;5.25;3.95;;;;;;;19.02;78.25;101558.16;6312253;28;20193;-75
2021/06/27 01:38:23;;;;;;;4.43;4.20;;;;;;;19.11;78.25;101560.22;6311326;28;20479;-75
2021/06/27 01:41:28;;;;;;;4.70;4.20;;;;;;;19.13;77.77;101557.19;6311304;28;20359;-75
2021/06/27 01:44:33;;;;;;;4.00;3.90;;;;;;;19.12;78.08;101561.88;6312127;28;20183;-76
2021/06/27 01:47:37;;;;;;;4.10;4.00;;;;;;;19.14;78.05;101556.94;6311235;28;20498;-75
2021/06/27 01:50:43;;;;;;;4.32;4.22;;;;;;;19.18;77.85;101562.81;6310992;28;20445;-75
2021/06/27 01:53:49;;;;;;;4.10;4.00;;;;;;;19.14;78.03;101551.41;6312541;28;20230;-76
2021/06/27 01:56:55;;;;;;;4.07;3.97;;;;;;;19.07;78.35;101549.91;6311968;28;20219;-75
2021/06/27 01:59:59;;;;;;;4.03;3.88;;;;;;;19.10;78.59;101552.19;6310944;28;20215;-75
2021/06/27 02:03:04;;;;;;;4.50;4.40;;;;;;;19.05;79.13;101546.56;6311106;28;20478;-75
2021/06/27 02:06:10;;;;;;;4.88;4.30;;;;;;;19.05;79.92;101543.81;6310807;28;20246;-75
2021/06/27 02:09:15;;;;;;;4.32;4.13;;;;;;;19.07;78.91;101539.69;6310928;28;20378;-76
2021/06/27 02:12:19;;;;;;;5.20;4.85;;;;;;;19.03;78.80;101544.06;6312081;28;20184;-75
2021/06/27 02:15:24;;;;;;;5.30;4.72;;;;;;;18.90;79.08;101549.13;6310769;28;20203;-75
2021/06/27 02:18:31;;;;;;;4.88;4.57;;;;;;;19.03;78.43;101548.78;6312130;28;20247;-75
2021/06/27 02:21:37;;;;;;;5.22;4.85;;;;;;;19.02;78.85;101547.09;6311660;28;20262;-75
2021/06/27 02:24:42;;;;;;;4.55;4.35;;;;;;;19.03;78.94;101537.72;6310483;28;20219;-75
2021/06/27 02:27:48;;;;;;;5.13;4.57;;;;;;;19.05;78.94;101530.81;6310977;28;20208;-75
2021/06/27 02:30:53;;;;;;;4.70;4.20;;;;;;;18.98;79.61;101534.84;6311975;28;20263;-75
2021/06/27 02:33:57;;;;;;;5.00;4.80;;;;;;;19.05;79.41;101538.28;6310597;28;20493;-76
2021/06/27 02:37:01;;;;;;;4.18;3.97;;;;;;;18.93;80.12;101537.53;6315337;28;20191;-75
2021/06/27 02:40:09;;;;;;;4.18;4.07;;;;;;;18.96;80.53;101531.50;6315252;28;20444;-75
2021/06/27 02:43:17;;;;;;;4.72;4.32;;;;;;;19.02;80.38;101522.19;6316610;28;20270;-76
2021/06/27 02:46:21;;;;;;;4.03;3.90;;;;;;;19.02;80.45;101525.81;6316350;28;20207;-76
2021/06/27 02:49:26;;;;;;;4.18;3.80;;;;;;;19.13;79.29;101526.78;6314896;28;20378;-76
2021/06/27 02:52:30;;;;;;;4.15;4.05;;;;;;;19.12;79.45;101528.69;6315094;28;20184;-75
2021/06/27 02:55:36;;;;;;;4.82;4.40;;;;;;;19.10;79.56;101533.66;6315799;28;20226;-75
2021/06/27 02:58:42;;;;;;;4.38;4.05;;;;;;;19.17;77.24;101517.69;6316153;28;20190;-75
2021/06/27 03:01:47;;;;;;;3.72;3.70;;;;;;;19.23;76.72;101526.91;6314868;28;20474;-75
2021/06/27 03:04:51;;;;;;;3.83;3.72;;;;;;;19.32;76.12;101525.34;6315966;28;20251;-76
2021/06/27 03:07:55;;;;;;;3.90;3.72;;;;;;;19.33;76.67;101532.56;6314511;28;20243;-75
2021/06/27 03:11:01;;;;;;;3.90;3.72;;;;;;;19.37;75.82;101528.19;6315818;28;20183;-76
2021/06/27 03:14:05;;;;;;;3.78;3.55;;;;;;;19.41;76.01;101523.84;6314406;28;20184;-75
2021/06/27 03:17:11;;;;;;;4.43;4.20;;;;;;;19.31;77.04;101518.97;6315157;28;20379;-75
2021/06/27 03:20:17;;;;;;;5.95;4.20;;;;;;;19.31;77.96;101518.97;6314594;28;20541;-75
2021/06/27 03:23:21;;;;;;;4.53;4.13;;;;;;;19.33;78.82;101521.50;6314211;28;20259;-76
2021/06/27 03:26:29;;;;;;;4.78;4.38;;;;;;;19.34;78.05;101517.59;6314060;28;20570;-75
2021/06/27 03:29:33;;;;;;;4.32;4.13;;;;;;;19.34;78.17;101528.69;6314164;28;20510;-75
2021/06/27 03:32:37;;;;;;;4.50;4.30;;;;;;;19.34;78.16;101529.53;6315405;28;20255;-75
2021/06/27 03:35:41;;;;;;;4.50;4.20;;;;;;;19.34;78.73;101523.16;6315284;28;20250;-75
2021/06/27 03:38:48;;;;;;;4.30;4.13;;;;;;;19.40;78.34;101511.09;6313899;28;20359;-76
2021/06/27 03:41:54;;;;;;;4.15;4.00;;;;;;;19.45;78.60;101524.13;6314755;28;20247;-75
2021/06/27 03:44:59;;;;;;;4.00;3.80;;;;;;;19.40;79.18;101515.78;6313697;28;20435;-75
2021/06/27 03:48:03;;;;;;;4.50;4.40;;;;;;;19.50;79.01;101525.03;6313579;28;20211;-75
2021/06/27 03:51:07;;;;;;;5.78;4.07;;;;;;;19.58;78.76;101524.59;6314904;28;20184;-75
2021/06/27 03:54:12;;;;;;;4.15;3.90;;;;;;;19.64;78.53;101523.56;6314440;28;20183;-76
2021/06/27 03:57:17;;;;;;;4.18;3.92;;;;;;;19.69;79.37;101526.38;6313523;28;20441;-75
2021/06/27 04:00:22;;;;;;;4.00;3.83;;;;;;;19.71;79.41;101524.16;6312432;28;20203;-75
2021/06/27 04:03:26;;;;;;;4.05;3.95;;;;;;;19.77;79.74;101528.66;6314284;28;20184;-75
2021/06/27 04:06:30;;;;;;;4.18;3.95;;;;;;;19.92;79.88;101531.59;6314473;28;20304;-75
2021/06/27 04:09:34;;;;;;;4.50;4.20;;;;;;;20.03;79.16;101526.16;6314488;28;20183;-75
2021/06/27 04:12:40;;;;;;;4.20;3.90;;;;;;;20.13;78.54;101520.69;6313342;28;20223;-75
2021/06/27 04:15:44;;;;;;;3.80;3.70;;;;;;;20.23;78.14;101515.25;6295885;28;20278;-75
2021/06/27 04:18:48;;;;;;;4.20;4.10;;;;;;;20.30;77.81;101515.88;6314308;28;20226;-75
2021/06/27 04:21:53;;;;;;;4.32;4.10;;;;;;;20.40;77.16;101505.72;6291993;28;20230;-75
2021/06/27 04:24:57;;;;;;;4.28;4.18;;;;;;;20.42;77.92;101502.66;6271199;28;20200;-75
2021/06/27 04:28:03;;;;;;;4.20;4.00;;;;;;;20.28;78.97;101512.53;6289136;28;20208;-75
2021/06/27 04:31:07;;;;;;;4.15;3.90;;;;;;;20.33;78.24;101504.25;6287880;28;20514;-75
2021/06/27 04:34:12;;;;;;;4.68;4.47;;;;;;;20.39;78.68;101497.69;6289009;28;20286;-75
2021/06/27 04:37:16;;;;;;;4.70;4.32;;;;;;;20.37;78.52;101497.06;6287594;28;20475;-75
2021/06/27 04:40:21;;;;;;;4.38;4.18;;;;;;;20.41;78.19;101501.84;6288666;28;20184;-75
2021/06/27 04:43:27;;;;;;;4.50;4.30;;;;;;;20.47;78.68;101497.16;6288982;28;20215;-75
2021/06/27 04:46:31;;;;;;;4.60;4.40;;;;;;;20.46;79.13;101498.28;6286559;28;20207;-75
2021/06/27 04:49:35;;;;;;;4.70;4.50;;;;;;;20.49;79.47;101508.84;6287388;28;20424;-75
2021/06/27 04:52:39;;;;;;;4.85;4.75;;;;;;;20.54;79.11;101508.88;6288298;28;20183;-75
2021/06/27 04:55:44;;;;;;;4.55;4.22;;;;;;;20.61;79.16;101503.91;6288614;28;20222;-75
2021/06/27 04:58:49;;;;;;;4.47;4.20;;;;;;;20.74;78.10;101491.50;6287999;28;20188;-75
2021/06/27 05:01:53;;;;;;;4.65;4.47;;;;;;;20.71;77.70;101489.28;6287395;28;20263;-75
2021/06/27 05:04:57;;;;;;;4.70;4.45;;;;;;;20.77;78.08;101494.59;6286929;28;20216;-76
2021/06/27 05:08:02;;;;;;;4.75;4.65;;;;;;;20.74;78.34;101489.59;6288330;28;20216;-75
2021/06/27 05:11:07;;;;;;;4.97;4.68;;;;;;;20.81;78.33;101484.63;6288436;28;20219;-76
2021/06/27 05:14:15;;;;;;;4.80;4.60;;;;;;;20.81;77.97;101479.06;6286859;28;20222;-75
2021/06/27 05:17:20;;;;;;;4.60;4.40;;;;;;;20.80;77.57;101477.41;6288052;28;20235;-75
2021/06/27 05:20:24;;;;;;;4.57;4.38;;;;;;;21.10;77.53;101472.03;6297453;28;20294;-75
2021/06/27 05:23:29;;;;;;;5.05;4.75;;;;;;;21.65;76.69;101484.38;6311571;28;20495;-75
2021/06/27 05:26:33;;;;;;;4.88;4.68;;;;;;;22.28;73.07;101483.94;6312920;28;20226;-75
2021/06/27 05:29:39;;;;;;;4.68;4.57;;;;;;;22.83;72.79;101468.28;6312786;28;20284;-76
2021/06/27 05:32:43;;;;;;;4.72;4.53;;;;;;;23.16;71.35;101478.72;6312419;28;20223;-76
2021/06/27 05:35:47;;;;;;;4.70;4.50;;;;;;;23.47;70.17;101474.66;6312421;28;20230;-75
2021/06/27 05:38:51;;;;;;;5.40;4.97;;;;;;;23.60;68.90;101479.59;6312325;28;20197;-76
2021/06/27 05:41:55;;;;;;;4.90;4.45;;;;;;;23.52;69.16;101483.00;6312547;28;20229;-76
2021/06/27 05:45:01;;;;;;;4.78;4.60;;;;;;;23.23;68.91;101478.41;6312491;28;20214;-75
2021/06/27 05:48:06;;;;;;;4.53;4.40;;;;;;;23.38;69.35;101481.97;6311002;28;20211;-75
2021/06/27 05:51:10;;;;;;;4.13;4.00;;;;;;;23.32;68.94;101477.50;6312435;28;20246;-75
2021/06/27 05:54:14;;;;;;;4.13;4.03;;;;;;;23.15;68.70;101490.97;6312135;28;20183;-75
2021/06/27 05:57:19;;;;;;;4.80;4.55;;;;;;;23.20;69.40;101479.81;6311398;28;20207;-75
2021/06/27 06:00:24;;;;;;;4.75;4.65;;;;;;;23.14;69.06;101480.13;6312057;28;20260;-76
2021/06/27 06:03:29;;;;;;;4.60;4.50;;;;;;;23.21;69.57;101478.69;6311926;28;20215;-75
2021/06/27 06:06:33;;;;;;;4.80;4.70;;;;;;;23.23;68.79;101487.59;6312266;28;20226;-75
2021/06/27 06:09:37;;;;;;;4.70;4.60;;;;;;;23.12;68.42;101483.19;6312123;28;20207;-75
2021/06/27 06:12:41;;;;;;;4.57;4.35;;;;;;;23.22;68.62;101488.69;6316987;28;20205;-75
2021/06/27 06:15:47;;;;;;;4.47;4.32;;;;;;;23.27;69.30;101488.69;6316294;28;20203;-75
2021/06/27 06:18:51;;;;;;;4.72;4.43;;;;;;;23.27;69.20;101488.69;6315927;28;20502;-76
2021/06/27 06:21:56;;;;;;;4.43;4.18;;;;;;;23.25;69.03;101482.56;6294316;28;20235;-75
2021/06/27 06:25:00;;;;;;;4.38;4.18;;;;;;;23.16;68.39;101492.66;6291792;28;20184;-75
2021/06/27 06:28:05;;;;;;;4.60;4.50;;;;;;;23.26;68.82;101492.59;6292033;28;20282;-76
2021/06/27 06:31:11;;;;;;;4.20;4.10;;;;;;;23.17;68.30;101474.81;6290663;28;20184;-75
2021/06/27 06:34:15;;;;;;;4.90;4.60;;;;;;;23.21;67.07;101495.41;6290836;28;20185;-75
2021/06/27 06:37:20;;;;;;;4.88;4.47;;;;;;;23.38;67.69;101481.97;6289100;28;20416;-75
2021/06/27 06:40:24;;;;;;;4.70;4.57;;;;;;;23.55;68.16;101482.44;6292072;28;20189;-75
2021/06/27 06:43:28;;;;;;;4.95;4.75;;;;;;;23.63;67.79;101484.59;6290246;28;20374;-75
2021/06/27 06:46:34;;;;;;;4.90;4.68;;;;;;;23.43;67.39;101486.69;6290270;28;20444;-75
2021/06/27 06:49:38;;;;;;;4.75;4.35;;;;;;;23.63;66.95;101484.59;6291157;28;20216;-75
2021/06/27 06:52:42;;;;;;;4.35;4.20;;;;;;;23.64;67.55;101477.09;6291242;28;20184;-75
2021/06/27 06:55:47;;;;;;;5.05;4.68;;;;;;;23.74;67.53;101487.31;6290923;28;20219;-74
2021/06/27 06:58:51;;;;;;;5.40;5.05;;;;;;;23.78;66.60;101480.06;6291113;28;20220;-74
2021/06/27 07:01:57;;;;;;;4.63;4.40;;;;;;;23.92;66.55;101481.06;6290561;28;20247;-75
2021/06/27 07:05:01;;;;;;;4.45;4.35;;;;;;;24.00;66.42;101492.44;6291188;28;20230;-75
2021/06/27 07:08:06;;;;;;;8.50;5.30;;;;;;;24.12;66.87;101478.16;6290973;28;20279;-75
2021/06/27 07:11:12;;;;;;;4.47;4.25;;;;;;;24.25;65.34;101480.25;6290783;28;20184;-75
2021/06/27 07:14:16;;;;;;;4.90;4.57;;;;;;;24.24;65.19;101478.63;6289529;28;20195;-75
2021/06/27 07:17:21;;;;;;;3.97;3.80;;;;;;;24.28;64.02;101474.09;6290136;28;20249;-76
2021/06/27 07:20:26;;;;;;;3.72;3.55;;;;;;;24.38;62.20;101468.44;6300355;28;20310;-76
2021/06/27 07:23:30;;;;;;;3.72;3.63;;;;;;;24.12;60.63;101470.63;6315325;28;20183;-75
2021/06/27 07:26:34;;;;;;;3.33;3.22;;;;;;;24.27;60.98;101462.13;6314260;28;20497;-75
2021/06/27 07:29:40;;;;;;;2.95;2.95;;;;;;;24.30;59.58;101466.28;6314962;28;20239;-75
2021/06/27 07:32:45;;;;;;;3.05;3.00;;;;;;;24.45;56.30;101466.13;6306327;28;20467;-75
2021/06/27 07:35:49;;;;;;;2.67;2.67;;;;;;;24.63;57.83;101459.78;6313821;28;20410;-76
2021/06/27 07:38:56;;;;;;;2.90;2.65;;;;;;;24.61;57.89;101466.78;6314078;28;20482;-75
2021/06/27 07:42:00;;;;;;;2.45;2.45;;;;;;;24.58;57.27;101459.84;6315799;28;20259;-75
2021/06/27 07:45:06;;;;;;;2.88;2.78;;;;;;;24.55;57.04;101468.81;6313810;28;20376;-76
2021/06/27 07:48:14;;;;;;;3.13;3.03;;;;;;;24.54;56.99;101467.16;6314732;28;20253;-76
2021/06/27 07:51:21;;;;;;;3.25;3.03;;;;;;;24.69;56.51;101464.19;6313731;28;20528;-75
2021/06/27 07:54:25;;;;;;;3.20;3.10;;;;;;;24.67;55.87;101465.63;6313978;28;20196;-75
2021/06/27 07:57:29;;;;;;;2.80;2.80;;;;;;;24.65;56.26;101474.28;6313613;28;20263;-76
2021/06/27 08:00:33;;;;;;;3.53;3.42;;;;;;;24.79;57.38;101466.91;6314780;28;20254;-76
2021/06/27 08:03:40;;;;;;;3.00;3.00;;;;;;;24.76;57.71;101469.41;6313146;28;20200;-76
2021/06/27 08:06:44;;;;;;;3.08;2.97;;;;;;;24.94;56.82;101465.88;6288019;28;20199;-76
2021/06/27 08:09:48;;;;;;;3.83;3.72;;;;;;;24.96;55.88;101473.97;6314022;28;20211;-75
2021/06/27 08:12:52;;;;;;;3.25;3.25;;;;;;;24.84;56.93;101466.00;6314049;28;20215;-75
2021/06/27 08:15:58;;;;;;;3.78;3.65;;;;;;;25.03;56.33;101466.06;6313285;28;20199;-75
2021/06/27 08:19:03;;;;;;;3.33;3.17;;;;;;;25.10;56.16;101469.31;6313912;28;20195;-75
2021/06/27 08:22:09;;;;;;;4.35;3.60;;;;;;;25.17;56.44;101461.41;6313448;28;20242;-74
2021/06/27 08:25:13;;;;;;;3.30;3.10;;;;;;;25.03;55.65;101463.28;6314100;28;20231;-75
2021/06/27 08:28:18;;;;;;;4.18;3.58;;;;;;;25.06;55.53;101468.28;6313637;28;20263;-74
2021/06/27 08:31:23;;;;;;;4.00;3.90;;;;;;;24.97;55.54;101458.88;6313421;28;20258;-74
2021/06/27 08:34:29;;;;;;;3.40;3.40;;;;;;;24.96;54.99;101465.59;6313123;28;20190;-74
2021/06/27 08:37:33;;;;;;;3.45;3.35;;;;;;;25.04;55.86;101460.19;6313656;28;20183;-75
2021/06/27 08:40:38;;;;;;;3.50;3.50;;;;;;;24.88;54.00;101456.75;6313839;28;20230;-75
2021/06/27 08:43:45;;;;;;;3.28;3.28;;;;;;;24.98;54.88;101455.81;6304170;28;20184;-74
2021/06/27 08:46:51;;;;;;;3.60;3.50;;;;;;;24.94;54.22;101459.47;6312400;28;20564;-75
2021/06/27 08:49:57;;;;;;;2.80;2.80;;;;;;;24.97;53.62;101445.75;6313072;28;20207;-75
2021/06/27 08:53:03;;;;;;;3.15;3.05;;;;;;;25.04;54.43;101459.38;6313477;28;20222;-74
2021/06/27 08:56:08;;;;;;;3.40;3.30;;;;;;;24.98;55.36;101455.81;6312916;28;20184;-75
2021/06/27 08:59:12;;;;;;;3.10;3.10;;;;;;;24.97;52.74;101464.47;6311789;28;20187;-75
2021/06/27 09:02:16;;;;;;;3.05;3.03;;;;;;;25.06;52.88;101462.69;6311758;28;20479;-76
2021/06/27 09:05:22;;;;;;;3.05;3.00;;;;;;;24.96;53.05;101462.81;6311826;28;20546;-76
2021/06/27 09:08:26;;;;;;;2.88;2.67;;;;;;;24.88;52.02;101462.31;6313118;28;20222;-75
2021/06/27 09:11:30;;;;;;;2.83;2.83;;;;;;;24.81;51.40;101461.84;6312885;28;20207;-75
2021/06/27 09:14:37;;;;;;;2.70;2.70;;;;;;;25.00;53.21;101464.72;6312893;28;20230;-76
2021/06/27 09:17:43;;;;;;;3.10;2.90;;;;;;;25.07;52.01;101458.75;6312668;28;20191;-76
2021/06/27 09:20:50;;;;;;;2.72;2.60;;;;;;;24.94;50.70;101467.84;6307877;28;20473;-76
2021/06/27 09:23:54;;;;;;;3.13;2.92;;;;;;;24.91;50.60;101460.09;6312677;28;20214;-76
2021/06/27 09:27:16;;;;;;;2.70;2.60;;;;;;;24.95;48.51;101458.34;6311644;28;20478;-76
2021/06/27 09:30:21;;;;;;;2.20;2.00;;;;;;;25.04;49.52;101459.38;6312332;28;20208;-76
2021/06/27 09:33:30;;;;;;;2.15;2.15;;;;;;;25.10;48.65;101463.75;6312072;28;20251;-75
2021/06/27 09:36:38;;;;;;;2.70;2.20;;;;;;;25.13;47.83;101463.16;6312074;28;20190;-75
2021/06/27 09:39:57;;;;;;;2.65;2.55;;;;;;;25.21;49.91;101465.28;6311045;28;20188;-75
2021/06/27 09:43:09;;;;;;;2.40;2.30;;;;;;;25.17;49.72;101465.03;6312109;28;20255;-75
2021/06/27 09:46:13;;;;;;;2.20;2.10;;;;;;;25.17;47.55;101469.78;6311045;28;20215;-76
2021/06/27 09:49:19;;;;;;;1.75;1.75;;;;;;;25.21;47.11;101462.50;6311785;28;20187;-75
2021/06/27 09:52:36;;;;;;;1.90;1.90;;;;;;;25.28;47.76;101460.97;6311005;28;20191;-75
2021/06/27 09:55:56;;;;;;;1.80;1.80;;;;;;;25.27;46.75;101464.09;6311941;28;20242;-76
2021/06/27 09:59:02;;;;;;;1.70;1.70;;;;;;;25.30;47.83;101463.47;6312181;28;20333;-75
2021/06/27 10:02:07;;;;;;;2.30;2.20;;;;;;;25.34;48.32;101456.16;6310568;28;20471;-75
2021/06/27 10:05:24;;;;;;;2.28;2.25;;;;;;;25.38;49.30;101454.41;6310698;28;20187;-75
2021/06/27 10:08:30;;;;;;;1.70;1.70;;;;;;;25.37;46.12;101455.56;6311722;28;20184;-75
2021/06/27 10:11:34;;;;;;;2.40;2.40;;;;;;;25.35;45.29;101457.81;6312066;28;20270;-75
2021/06/27 10:14:56;;;;;;;2.30;2.30;;;;;;;25.41;46.43;101448.25;6311982;28;20279;-75
2021/06/27 10:18:00;;;;;;;2.50;2.50;;;;;;;25.46;47.64;101439.81;6310903;28;20188;-76
2021/06/27 10:21:06;;;;;;;2.70;2.50;;;;;;;25.52;47.96;101454.53;6310980;28;20289;-76
2021/06/27 10:24:12;;;;;;;3.22;3.13;;;;;;;25.51;48.62;101448.13;6311875;28;20232;-76
2021/06/27 10:27:16;;;;;;;3.13;3.03;;;;;;;25.55;49.23;101446.41;6312064;28;20188;-75
2021/06/27 10:30:20;;;;;;;2.95;2.83;;;;;;;25.57;49.57;101440.50;6311711;28;20290;-75
2021/06/27 10:33:25;;;;;;;3.15;3.15;;;;;;;25.45;49.88;101452.06;6310928;28;20251;-76
2021/06/27 10:36:34;;;;;;;3.45;3.25;;;;;;;25.49;49.14;101447.59;6310820;28;20247;-76
2021/06/27 10:39:55;;;;;;;3.53;3.30;;;;;;;25.63;49.29;101440.09;6311488;28;20184;-75
2021/06/27 10:43:00;;;;;;;3.47;2.85;;;;;;;25.73;50.44;101439.13;6311901;28;20191;-76
2021/06/27 10:46:05;;;;;;;2.70;2.70;;;;;;;25.70;50.24;101446.16;6311788;28;20191;-76
2021/06/27 10:50:03;;;;;;;2.97;2.90;;;;;;;25.77;48.88;101429.84;6310257;28;20403;-76
2021/06/27 10:53:09;;;;;;;2.92;2.83;;;;;;;25.79;46.98;101421.13;6311607;28;20183;-76
2021/06/27 10:56:13;;;;;;;2.60;2.60;;;;;;;25.79;46.36;101416.38;6312281;28;20435;-75
2021/06/27 10:59:51;;;;;;;2.42;2.42;;;;;;;25.77;47.62;101418.66;6315011;28;20230;-75
2021/06/27 11:03:15;;;;;;;2.63;2.53;;;;;;;25.71;47.64;101417.06;6315701;28;20219;-76
2021/06/27 11:06:39;;;;;;;6.15;2.67;;;;;;;25.64;46.21;101408.25;6315099;28;20262;-75
2021/06/27 11:09:45;;;;;;;2.70;2.63;;;;;;;25.80;47.20;101401.28;6315993;28;20191;-75
2021/06/27 11:13:14;;;;;;;3.42;2.85;;;;;;;25.89;48.55;101399.44;6316001;28;20261;-75
2021/06/27 11:16:22;;;;;;;3.13;3.08;;;;;;;26.01;49.32;101399.78;6315947;28;20199;-75
2021/06/27 11:19:28;;;;;;;3.00;3.00;;;;;;;26.13;49.99;101398.50;6315404;28;20184;-75
2021/06/27 11:22:46;;;;;;;3.05;2.95;;;;;;;26.14;49.83;101398.22;6290772;28;20199;-75
2021/06/27 11:25:52;;;;;;;3.80;3.63;;;;;;;26.33;50.48;101415.72;6289945;28;20216;-76
2021/06/27 11:28:56;;;;;;;3.50;3.40;;;;;;;26.35;50.46;101402.25;6291429;28;20216;-75
2021/06/27 11:32:42;;;;;;;4.80;4.65;;;;;;;26.48;51.34;101412.63;6289149;28;20291;-75
2021/06/27 11:35:47;;;;;;;4.40;3.97;;;;;;;26.54;51.42;101410.59;6289194;28;20184;-77
2021/06/27 11:38:52;;;;;;;3.97;3.88;;;;;;;26.66;51.77;101416.47;6288871;28;20216;-75
2021/06/27 11:41:57;;;;;;;5.38;5.18;;;;;;;26.77;51.99;101420.78;6288882;28;20188;-76
2021/06/27 11:45:34;;;;;;;4.40;4.30;;;;;;;26.73;52.16;101430.91;6289893;28;20188;-75
2021/06/27 11:48:44;;;;;;;4.03;3.70;;;;;;;26.68;52.75;101426.22;6290089;28;20191;-75
2021/06/27 11:51:50;;;;;;;4.70;4.40;;;;;;;26.72;52.33;101435.69;6288738;28;20566;-76
2021/06/27 11:54:55;;;;;;;4.50;4.05;;;;;;;26.76;52.87;101418.28;6290267;28;20242;-76
2021/06/27 11:58:01;;;;;;;4.03;3.92;;;;;;;26.54;52.22;101427.38;6290040;28;20216;-76
2021/06/27 12:01:11;;;;;;;3.40;3.10;;;;;;;26.33;53.04;101426.09;6289640;28;20196;-76
2021/06/27 12:04:44;;;;;;;4.03;3.78;;;;;;;26.24;52.69;101411.16;6289512;28;20188;-75
2021/06/27 12:07:48;;;;;;;3.70;3.40;;;;;;;26.47;52.85;101393.38;6288838;28;20185;-77
2021/06/27 12:10:56;;;;;;;3.35;3.25;;;;;;;26.47;50.96;101398.97;6289352;28;20195;-76
2021/06/27 12:14:01;;;;;;;3.30;3.10;;;;;;;26.57;51.04;101409.97;6289237;28;20254;-75
2021/06/27 12:17:24;;;;;;;2.80;2.80;;;;;;;26.68;50.09;101409.44;6289050;28;20408;-75
2021/06/27 12:20:30;;;;;;;2.95;2.90;;;;;;;26.55;50.07;101440.25;6295388;28;20235;-76
2021/06/27 12:23:37;;;;;;;3.00;2.85;;;;;;;26.55;49.91;101445.84;6314317;28;20192;-75
2021/06/27 12:26:41;;;;;;;2.80;2.80;;;;;;;26.57;49.37;101455.56;6313304;28;20183;-76
2021/06/27 12:29:56;;;;;;;2.80;2.70;;;;;;;26.55;49.58;101451.44;6296600;28;20184;-77
2021/06/27 12:33:01;;;;;;;3.03;2.92;;;;;;;26.50;50.25;101437.53;6314106;28;20281;-75
2021/06/27 12:36:07;;;;;;;3.20;3.10;;;;;;;26.57;49.84;101432.34;6313977;28;20237;-75
2021/06/27 12:39:16;;;;;;;3.58;3.35;;;;;;;26.44;49.25;101433.16;6313697;28;20221;-75
2021/06/27 12:42:20;;;;;;;3.10;3.10;;;;;;;26.43;50.10;101437.91;6313387;28;20223;-76
2021/06/27 12:45:27;;;;;;;3.20;3.00;;;;;;;26.42;50.08;101443.84;6313558;28;20183;-75
2021/06/27 12:48:31;;;;;;;3.25;3.25;;;;;;;26.31;50.81;101445.16;6313158;28;20215;-75
2021/06/27 12:51:37;;;;;;;2.75;2.72;;;;;;;26.38;49.26;101432.41;6313047;28;20246;-76
2021/06/27 12:54:45;;;;;;;2.80;2.70;;;;;;;26.41;48.53;101433.78;6313317;28;20258;-76
2021/06/27 12:57:56;;;;;;;2.72;2.63;;;;;;;26.47;49.62;101426.97;6312338;28;20416;-75
2021/06/27 13:01:04;;;;;;;2.67;2.50;;;;;;;26.38;48.98;101426.00;6313266;28;20203;-75
2021/06/27 13:04:08;;;;;;;2.40;2.25;;;;;;;26.39;49.80;101419.28;6311752;28;20571;-75
2021/06/27 13:07:14;;;;;;;2.20;2.10;;;;;;;26.28;49.46;101426.19;6313229;28;20184;-75
2021/06/27 13:10:20;;;;;;;2.00;2.00;;;;;;;26.01;48.72;101419.34;6313135;28;20190;-75
2021/06/27 13:13:29;;;;;;;2.13;2.13;;;;;;;26.29;49.04;101419.47;6311428;28;20275;-75
2021/06/27 13:16:36;;;;;;;2.00;2.00;;;;;;;26.20;49.30;101415.69;6311387;28;20200;-75
2021/06/27 13:20:15;;;;;;;3.42;2.58;;;;;;;26.21;48.36;101406.19;6311463;28;20263;-76
2021/06/27 13:23:25;;;;;;;2.60;2.50;;;;;;;26.43;50.06;101409.09;6312895;28;20188;-76
2021/06/27 13:26:38;;;;;;;2.50;2.40;;;;;;;26.68;50.40;101394.63;6312398;28;20259;-76
2021/06/27 13:29:42;;;;;;;2.55;2.45;;;;;;;26.68;49.36;101400.25;6311299;28;20183;-76
2021/06/27 13:32:47;;;;;;;2.70;2.60;;;;;;;26.54;49.82;101411.41;6312374;28;20214;-76
2021/06/27 13:36:00;;;;;;;3.25;3.15;;;;;;;26.47;50.33;101426.97;6312600;28;20184;-75
2021/06/27 13:39:07;;;;;;;4.05;3.00;;;;;;;26.45;50.86;101434.84;6312059;28;20183;-76
2021/06/27 13:42:12;;;;;;;3.30;3.20;;;;;;;26.56;51.54;101419.50;6312342;28;20298;-76
2021/06/27 13:45:20;;;;;;;3.95;3.75;;;;;;;26.49;52.80;101419.06;6311399;28;20190;-75
2021/06/27 13:48:30;;;;;;;3.80;3.58;;;;;;;26.21;53.21;101453.72;6312273;28;20222;-75
2021/06/27 13:51:34;;;;;;;3.55;2.97;;;;;;;25.12;52.41;101467.06;6312301;28;20268;-76
2021/06/27 13:54:38;;;;;;;2.60;2.50;;;;;;;24.81;53.23;101461.84;6311742;28;20274;-75
2021/06/27 13:57:42;;;;;;;3.17;2.90;;;;;;;24.57;54.13;101472.16;6312464;28;20184;-75
2021/06/27 14:00:46;;;;;;;2.70;2.60;;;;;;;24.63;55.15;101465.38;6310969;28;20218;-75
2021/06/27 14:03:52;;;;;;;2.67;2.58;;;;;;;24.36;53.62;101476.25;6311984;28;20273;-74
2021/06/27 14:06:56;;;;;;;2.40;2.30;;;;;;;24.32;53.83;101479.94;6312214;28;20183;-75
2021/06/27 14:10:00;;;;;;;2.42;2.33;;;;;;;24.17;53.28;101478.94;6312099;28;20254;-75
2021/06/27 14:13:08;;;;;;;2.10;2.00;;;;;;;24.19;52.20;101485.03;6310596;28;20234;-75
2021/06/27 14:16:14;;;;;;;2.10;2.00;;;;;;;24.03;52.09;101491.03;6311571;28;20262;-75
2021/06/27 14:19:20;;;;;;;3.95;2.10;;;;;;;24.07;52.93;101486.50;6312014;28;20184;-76
2021/06/27 14:22:24;;;;;;;2.13;1.98;;;;;;;23.95;53.29;101486.91;6289374;28;20235;-75
2021/06/27 14:25:28;;;;;;;2.22;2.08;;;;;;;24.08;52.83;101480.69;6285666;28;20483;-75
2021/06/27 14:28:32;;;;;;;2.10;2.10;;;;;;;24.19;53.04;101478.66;6285848;28;20234;-76